Time;durP1;ratioP1;P1;durP2;ratioP2;P2;SDS_P1;SDS_P2;PMS_P1;PMS_P2;Temp;Humidity;BMP_temperature;BMP_pressure;BME280_temperature;BME280_humidity;BME280_pressure;Samples;Min_cycle;Max_cycle;Signal;HPM_P1;HPM_P2
2022/09/27 00:01:37;;;;;;;5.27;4.97;;;14.70;99.90;;;;;;4996625;28;20258;-75
2022/09/27 00:04:03;;;;;;;5.57;5.27;;;14.70;99.90;;;;;;5013761;28;20485;-67
2022/09/27 00:06:31;;;;;;;5.13;4.77;;;14.80;99.90;;;;;;5031148;28;20813;-67
2022/09/27 00:08:57;;;;;;;4.80;4.50;;;14.80;99.90;;;;;;5015546;28;20198;-67
2022/09/27 00:11:27;;;;;;;4.27;3.93;;;14.80;99.90;;;;;;5033449;28;20417;-67
2022/09/27 00:13:55;;;;;;;4.97;4.57;;;14.90;99.90;;;;;;5033171;28;20420;-67
2022/09/27 00:16:22;;;;;;;4.60;4.30;;;14.90;99.90;;;;;;5033895;28;20883;-67
2022/09/27 00:18:48;;;;;;;4.30;4.10;;;14.90;99.90;;;;;;5014466;28;20430;-67
2022/09/27 00:21:14;;;;;;;4.30;4.00;;;14.90;99.90;;;;;;5034009;28;20409;-67
2022/09/27 00:23:40;;;;;;;4.73;4.43;;;14.90;99.90;;;;;;5033310;28;20811;-75
2022/09/27 00:26:09;;;;;;;4.73;4.43;;;14.90;99.90;;;;;;5033478;28;20171;-67
2022/09/27 00:28:35;;;;;;;5.00;4.60;;;14.80;99.90;;;;;;5033735;28;20414;-68
2022/09/27 00:31:01;;;;;;;4.83;4.63;;;14.80;99.90;;;;;;5032788;28;20545;-67
2022/09/27 00:33:27;;;;;;;4.63;4.43;;;14.90;99.90;;;;;;5032137;28;20190;-67
2022/09/27 00:35:52;;;;;;;4.90;4.60;;;14.90;99.90;;;;;;5032813;28;20427;-67
2022/09/27 00:38:18;;;;;;;4.90;4.40;;;14.80;99.90;;;;;;5032754;28;20174;-67
2022/09/27 00:40:45;;;;;;;4.90;4.60;;;14.80;99.90;;;;;;5032677;28;20186;-67
2022/09/27 00:43:16;;;;;;;4.70;4.40;;;14.80;99.90;;;;;;5033421;28;20546;-67
2022/09/27 00:45:48;;;;;;;4.57;4.10;;;14.70;99.90;;;;;;5031837;28;20784;-75
2022/09/27 00:48:21;;;;;;;5.20;4.90;;;14.60;99.90;;;;;;5033391;28;20847;-67
2022/09/27 00:50:50;;;;;;;5.23;4.70;;;14.60;99.90;;;;;;5031584;28;21017;-67
2022/09/27 00:53:26;;;;;;;4.80;4.60;;;14.60;99.90;;;;;;5032634;28;20435;-67
2022/09/27 00:56:04;;;;;;;6.23;5.73;;;14.50;99.90;;;;;;5032450;28;20765;-67
2022/09/27 00:58:34;;;;;;;5.07;4.80;;;14.50;99.90;;;;;;5033195;28;20455;-67
2022/09/27 01:01:04;;;;;;;5.17;4.77;;;14.50;99.90;;;;;;5031360;28;20940;-67
2022/09/27 01:03:56;;;;;;;5.27;4.67;;;14.50;99.90;;;;;;5032446;28;20781;-67
2022/09/27 01:06:22;;;;;;;5.20;4.80;;;14.50;99.90;;;;;;5032672;28;20805;-67
2022/09/27 01:08:48;;;;;;;4.80;4.50;;;14.50;99.90;;;;;;5032232;28;20500;-67
2022/09/27 01:11:30;;;;;;;4.57;4.30;;;14.60;99.90;;;;;;5015372;28;20946;-67
2022/09/27 01:14:46;;;;;;;5.23;4.93;;;14.50;99.90;;;;;;5031436;28;20430;-67
2022/09/27 01:17:34;;;;;;;4.53;4.13;;;14.50;99.90;;;;;;4971782;28;20443;-68
2022/09/27 01:20:11;;;;;;;4.50;4.20;;;14.50;99.90;;;;;;5011057;28;20501;-67
2022/09/27 01:22:56;;;;;;;6.47;4.90;;;14.50;99.90;;;;;;5033066;28;20396;-67
2022/09/27 01:25:43;;;;;;;4.87;4.57;;;14.50;99.90;;;;;;5032511;28;20400;-67
2022/09/27 01:28:15;;;;;;;5.93;4.40;;;14.40;99.90;;;;;;5031621;28;20436;-67
2022/09/27 01:30:44;;;;;;;5.23;4.37;;;14.40;99.90;;;;;;5032469;28;20457;-75
2022/09/27 01:33:20;;;;;;;4.97;4.57;;;14.40;99.90;;;;;;5031773;28;20430;-67
2022/09/27 01:36:00;;;;;;;4.57;4.27;;;14.40;99.90;;;;;;5031358;28;20438;-71
2022/09/27 01:38:51;;;;;;;6.03;5.63;;;14.40;99.90;;;;;;5032509;28;20484;-67
2022/09/27 01:41:55;;;;;;;4.60;4.40;;;14.30;99.90;;;;;;5031203;28;20440;-67
2022/09/27 01:44:38;;;;;;;6.47;5.97;;;14.30;99.90;;;;;;4971132;28;20914;-67
2022/09/27 01:47:13;;;;;;;6.00;5.57;;;14.30;99.90;;;;;;4972432;28;20459;-67
2022/09/27 01:50:20;;;;;;;5.80;5.40;;;14.30;99.90;;;;;;5023170;28;20471;-67
2022/09/27 01:52:58;;;;;;;6.53;6.03;;;14.30;99.90;;;;;;5019761;28;20477;-75
2022/09/27 01:55:29;;;;;;;6.20;5.70;;;14.30;99.90;;;;;;5031701;28;20443;-67
2022/09/27 01:58:01;;;;;;;6.23;5.70;;;14.30;99.90;;;;;;5030878;28;20920;-67
2022/09/27 02:00:28;;;;;;;6.30;5.77;;;14.30;99.90;;;;;;5032336;28;20400;-67
2022/09/27 02:03:08;;;;;;;6.73;6.07;;;14.20;99.90;;;;;;5031206;28;20421;-67
2022/09/27 02:05:41;;;;;;;6.43;5.83;;;14.20;99.90;;;;;;5020832;28;21023;-67
2022/09/27 02:08:23;;;;;;;6.90;6.30;;;14.20;99.90;;;;;;5011638;28;20409;-67
2022/09/27 02:10:53;;;;;;;7.50;6.90;;;14.20;99.90;;;;;;4993927;28;20465;-67
2022/09/27 02:13:30;;;;;;;7.37;6.77;;;14.20;99.90;;;;;;5012350;28;20444;-67
2022/09/27 02:16:04;;;;;;;8.33;7.53;;;14.30;99.90;;;;;;4993955;28;20937;-67
2022/09/27 02:18:44;;;;;;;9.70;7.60;;;14.30;99.90;;;;;;5011584;28;20407;-67
2022/09/27 02:21:13;;;;;;;8.47;7.27;;;14.30;99.90;;;;;;5011584;28;20426;-67
2022/09/27 02:23:43;;;;;;;8.43;7.63;;;14.30;99.90;;;;;;5012239;28;20405;-67
2022/09/27 02:26:20;;;;;;;9.03;8.20;;;14.20;99.90;;;;;;4993215;28;20478;-67
2022/09/27 02:29:06;;;;;;;9.70;8.73;;;14.20;99.90;;;;;;5012033;28;20488;-75
2022/09/27 02:31:31;;;;;;;9.20;8.40;;;14.20;99.90;;;;;;4991690;28;20791;-67
2022/09/27 02:34:20;;;;;;;10.43;8.47;;;14.20;99.90;;;;;;4988355;28;20440;-67
2022/09/27 02:36:47;;;;;;;9.83;8.90;;;14.20;99.90;;;;;;5011530;28;20210;-75
2022/09/27 02:39:13;;;;;;;11.27;10.27;;;14.20;99.90;;;;;;5011210;28;20445;-67
2022/09/27 02:41:38;;;;;;;12.00;9.77;;;14.20;99.90;;;;;;5012076;28;20746;-67
2022/09/27 02:44:09;;;;;;;10.23;9.23;;;14.20;99.90;;;;;;5011304;28;20188;-67
2022/09/27 02:46:56;;;;;;;11.87;9.90;;;14.20;99.90;;;;;;4993590;28;20636;-67
2022/09/27 02:49:28;;;;;;;10.87;9.77;;;14.20;99.90;;;;;;5012115;28;20452;-67
2022/09/27 02:52:01;;;;;;;10.80;9.63;;;14.20;99.90;;;;;;5010989;28;20421;-67
2022/09/27 02:54:48;;;;;;;12.10;10.83;;;14.20;99.90;;;;;;5011155;28;20437;-67
2022/09/27 02:57:31;;;;;;;11.53;10.43;;;14.20;99.90;;;;;;5010464;28;20434;-67
2022/09/27 03:00:06;;;;;;;14.07;10.57;;;14.20;99.90;;;;;;4996430;28;20524;-67
2022/09/27 03:02:47;;;;;;;12.60;11.40;;;14.10;99.90;;;;;;5014874;28;20424;-67
2022/09/27 03:05:19;;;;;;;12.10;10.90;;;14.10;99.90;;;;;;5014779;28;20479;-67
2022/09/27 03:07:45;;;;;;;12.60;10.70;;;14.10;99.90;;;;;;5015526;28;20413;-67
2022/09/27 03:10:21;;;;;;;11.50;10.40;;;14.10;99.90;;;;;;5014597;28;21250;-67
2022/09/27 03:12:47;;;;;;;9.03;8.13;;;14.10;99.90;;;;;;4997260;28;20404;-75
2022/09/27 03:15:13;;;;;;;9.60;8.80;;;14.10;99.90;;;;;;5014598;28;20508;-67
2022/09/27 03:17:39;;;;;;;10.03;9.17;;;14.10;99.90;;;;;;5015039;28;20941;-67
2022/09/27 03:20:05;;;;;;;10.67;9.63;;;14.10;99.90;;;;;;5013810;28;20790;-67
2022/09/27 03:22:31;;;;;;;9.97;9.07;;;14.10;99.90;;;;;;5015220;28;20246;-67
2022/09/27 03:24:57;;;;;;;9.60;8.80;;;14.10;99.90;;;;;;5013524;28;20441;-67
2022/09/27 03:27:23;;;;;;;8.20;7.60;;;14.10;99.90;;;;;;5013145;28;20481;-67
2022/09/27 03:29:49;;;;;;;9.20;8.23;;;14.00;99.90;;;;;;5014758;28;20211;-75
2022/09/27 03:32:15;;;;;;;9.00;8.17;;;14.00;99.90;;;;;;5014285;28;20405;-67
2022/09/27 03:34:40;;;;;;;9.10;8.33;;;14.10;99.90;;;;;;5014023;28;20634;-67
2022/09/27 03:37:07;;;;;;;9.17;8.37;;;14.00;99.90;;;;;;5014127;28;20418;-67
2022/09/27 03:39:33;;;;;;;9.43;8.63;;;14.00;99.90;;;;;;5014897;28;20187;-67
2022/09/27 03:41:59;;;;;;;8.80;8.07;;;14.00;99.90;;;;;;5013430;28;20507;-67
2022/09/27 03:44:25;;;;;;;9.70;8.90;;;14.00;99.90;;;;;;5014688;28;20418;-67
2022/09/27 03:46:50;;;;;;;8.87;8.13;;;14.00;99.90;;;;;;5014496;28;20170;-75
2022/09/27 03:49:16;;;;;;;9.87;8.80;;;14.10;99.90;;;;;;5013997;28;20225;-67
2022/09/27 03:51:42;;;;;;;10.03;9.23;;;14.10;99.90;;;;;;5014662;28;20178;-67
2022/09/27 03:54:08;;;;;;;7.80;7.17;;;14.10;99.90;;;;;;5013079;28;20190;-67
2022/09/27 03:56:34;;;;;;;9.87;8.33;;;14.10;99.90;;;;;;5013931;28;20511;-67
2022/09/27 03:59:03;;;;;;;8.07;7.47;;;14.10;99.90;;;;;;5013121;28;20441;-67
2022/09/27 04:01:28;;;;;;;8.43;7.63;;;14.00;99.90;;;;;;5014420;28;20181;-67
2022/09/27 04:03:54;;;;;;;9.17;7.70;;;14.00;99.90;;;;;;5013688;28;20415;-75
2022/09/27 04:06:21;;;;;;;10.33;9.63;;;13.90;99.90;;;;;;5030822;28;20279;-67
2022/09/27 04:08:47;;;;;;;8.80;8.03;;;13.90;99.90;;;;;;5022538;28;20201;-67
2022/09/27 04:11:14;;;;;;;9.83;8.10;;;13.90;99.90;;;;;;5013471;28;20536;-67
2022/09/27 04:13:40;;;;;;;9.80;8.77;;;13.90;99.90;;;;;;5013022;28;20167;-67
2022/09/27 04:16:06;;;;;;;9.27;8.47;;;13.90;99.90;;;;;;5013122;28;20422;-67
2022/09/27 04:18:32;;;;;;;9.10;8.00;;;13.90;99.90;;;;;;5014064;28;20851;-67
2022/09/27 04:20:58;;;;;;;11.00;9.30;;;13.90;99.90;;;;;;5013339;28;20534;-67
2022/09/27 04:23:24;;;;;;;8.23;7.53;;;13.90;99.90;;;;;;5013219;28;20439;-67
2022/09/27 04:25:49;;;;;;;8.50;7.67;;;13.90;99.90;;;;;;5015260;28;20645;-67
2022/09/27 04:28:15;;;;;;;8.73;7.93;;;13.90;99.90;;;;;;5024312;28;20526;-67
2022/09/27 04:30:41;;;;;;;11.33;8.90;;;13.90;99.90;;;;;;5013864;28;20301;-67
2022/09/27 04:33:07;;;;;;;11.40;9.80;;;13.90;99.90;;;;;;5013121;28;20406;-67
2022/09/27 04:38:20;;;;;;;12.50;11.50;;;13.90;99.90;;;;;;5013119;28;20184;-67
2022/09/27 04:40:47;;;;;;;10.87;9.77;;;13.90;99.90;;;;;;5013778;28;20420;-67
2022/09/27 04:43:13;;;;;;;10.80;9.57;;;13.90;99.90;;;;;;5012821;28;21030;-67
2022/09/27 04:45:39;;;;;;;10.83;9.83;;;13.90;99.90;;;;;;5012477;28;20520;-67
2022/09/27 04:48:04;;;;;;;10.43;9.43;;;13.90;99.90;;;;;;5013071;28;20180;-67
2022/09/27 04:50:31;;;;;;;10.90;9.80;;;13.90;99.90;;;;;;5013163;28;20213;-67
2022/09/27 04:52:57;;;;;;;9.60;8.60;;;13.90;99.90;;;;;;5012785;28;20180;-75
2022/09/27 04:55:22;;;;;;;10.33;8.00;;;13.80;99.90;;;;;;5012995;28;20440;-67
2022/09/27 04:57:48;;;;;;;10.20;7.80;;;13.90;99.90;;;;;;5012062;28;20215;-67
2022/09/27 05:00:15;;;;;;;9.67;8.27;;;13.90;99.90;;;;;;5011140;28;20692;-67
2022/09/27 05:02:43;;;;;;;8.90;8.00;;;13.80;99.90;;;;;;4994431;28;20886;-67
2022/09/27 05:05:10;;;;;;;9.37;8.47;;;13.80;99.90;;;;;;5018814;28;20448;-67
2022/09/27 05:07:37;;;;;;;8.50;7.70;;;13.80;99.90;;;;;;5032436;28;20838;-67
2022/09/27 05:10:03;;;;;;;10.23;8.07;;;13.90;99.90;;;;;;5031298;28;20510;-68
2022/09/27 05:12:28;;;;;;;10.47;7.90;;;13.90;99.90;;;;;;5033396;28;20511;-67
2022/09/27 05:14:56;;;;;;;10.83;8.77;;;13.90;99.90;;;;;;5032030;28;20909;-75
2022/09/27 05:17:22;;;;;;;9.30;8.30;;;13.80;99.90;;;;;;5032853;28;20188;-67
2022/09/27 05:19:49;;;;;;;10.20;9.13;;;13.80;99.90;;;;;;5031926;28;20436;-68
2022/09/27 05:22:15;;;;;;;8.10;7.40;;;13.80;99.90;;;;;;5014338;28;20423;-67
2022/09/27 05:24:41;;;;;;;8.83;8.03;;;13.70;99.90;;;;;;5032488;28;20424;-67
2022/09/27 05:27:11;;;;;;;11.93;10.70;;;13.60;99.90;;;;;;5030635;28;20537;-67
2022/09/27 05:29:37;;;;;;;8.87;8.00;;;13.60;99.90;;;;;;5031052;28;20244;-67
2022/09/27 05:32:03;;;;;;;11.03;10.00;;;13.60;99.90;;;;;;5030866;28;20516;-67
2022/09/27 05:34:31;;;;;;;11.50;9.00;;;13.60;99.90;;;;;;5032200;28;20410;-67
2022/09/27 05:36:57;;;;;;;11.90;10.70;;;13.60;99.90;;;;;;5029254;28;20181;-74
2022/09/27 05:39:23;;;;;;;12.23;9.87;;;13.60;99.90;;;;;;5030355;28;20439;-67
2022/09/27 05:41:49;;;;;;;14.57;12.10;;;13.50;99.90;;;;;;5032495;28;20831;-67
2022/09/27 05:44:15;;;;;;;12.70;10.67;;;13.50;99.90;;;;;;5031613;28;20177;-67
2022/09/27 05:46:41;;;;;;;18.60;13.43;;;13.60;99.90;;;;;;5031644;28;20432;-67
2022/09/27 05:49:07;;;;;;;13.70;12.33;;;13.60;99.90;;;;;;5030682;28;20434;-67
2022/09/27 05:51:33;;;;;;;13.97;11.00;;;13.60;99.90;;;;;;5032258;28;20513;-67
2022/09/27 05:53:58;;;;;;;12.97;11.67;;;13.60;99.90;;;;;;5014330;28;20181;-75
2022/09/27 05:56:24;;;;;;;13.73;12.23;;;13.70;99.90;;;;;;4963002;28;20229;-68
2022/09/27 05:58:50;;;;;;;14.20;11.60;;;13.70;99.90;;;;;;5030711;28;20272;-67
2022/09/27 06:01:16;;;;;;;16.10;12.50;;;13.70;99.90;;;;;;5023683;28;20195;-67
2022/09/27 06:03:42;;;;;;;13.57;12.00;;;13.70;99.90;;;;;;5018784;28;20475;-67
2022/09/27 06:06:09;;;;;;;14.33;11.30;;;13.70;99.90;;;;;;5013037;28;20460;-67
2022/09/27 06:08:37;;;;;;;11.63;10.40;;;13.60;99.90;;;;;;5032122;28;20443;-67
2022/09/27 06:11:08;;;;;;;17.00;12.60;;;13.60;99.90;;;;;;5022635;28;20471;-68
2022/09/27 06:13:35;;;;;;;16.73;11.27;;;13.60;99.90;;;;;;5010217;28;20427;-67
2022/09/27 06:16:02;;;;;;;11.07;9.90;;;13.50;99.90;;;;;;5031218;28;20417;-74
2022/09/27 06:18:28;;;;;;;13.07;11.70;;;13.50;99.90;;;;;;5032156;28;20907;-67
2022/09/27 06:20:54;;;;;;;12.00;10.17;;;13.50;99.90;;;;;;5029306;28;20431;-67
2022/09/27 06:23:22;;;;;;;10.77;9.63;;;13.50;99.90;;;;;;5016351;28;20799;-67
2022/09/27 06:25:49;;;;;;;13.03;11.83;;;13.60;99.90;;;;;;5018020;28;20787;-67
2022/09/27 06:28:16;;;;;;;16.37;10.60;;;13.60;99.90;;;;;;5029998;28;20427;-67
2022/09/27 06:30:44;;;;;;;9.53;8.50;;;13.60;99.90;;;;;;5031594;28;20470;-67
2022/09/27 06:33:15;;;;;;;11.13;10.03;;;13.60;99.90;;;;;;5031160;28;20477;-67
2022/09/27 06:35:41;;;;;;;8.80;8.07;;;13.60;99.90;;;;;;5032408;28;20424;-67
2022/09/27 06:38:14;;;;;;;8.30;7.60;;;13.50;99.90;;;;;;5034944;28;20411;-68
2022/09/27 06:40:44;;;;;;;7.07;6.43;;;13.70;99.90;;;;;;5028250;28;20423;-69
2022/09/27 06:43:12;;;;;;;9.10;6.20;;;14.10;99.90;;;;;;5021422;28;20413;-68
2022/09/27 06:45:38;;;;;;;8.50;7.60;;;14.40;99.90;;;;;;5031671;28;20425;-71
2022/09/27 06:48:06;;;;;;;9.50;7.50;;;14.80;99.90;;;;;;5034991;28;20478;-68
2022/09/27 06:50:36;;;;;;;6.43;5.83;;;15.00;99.90;;;;;;5035520;28;20507;-68
2022/09/27 06:53:08;;;;;;;7.00;6.30;;;15.20;99.90;;;;;;5017452;28;20475;-75
2022/09/27 06:55:33;;;;;;;6.63;6.03;;;15.50;99.90;;;;;;5029115;28;20423;-67
2022/09/27 07:00:49;;;;;;;10.33;7.83;;;15.90;99.90;;;;;;5024656;28;20173;-68
2022/09/27 07:03:15;;;;;;;12.27;7.43;;;16.10;99.90;;;;;;5028864;28;20477;-68
2022/09/27 07:05:41;;;;;;;6.13;5.63;;;16.20;99.90;;;;;;5023395;28;20487;-69
2022/09/27 07:08:10;;;;;;;7.60;5.73;;;16.30;99.90;;;;;;5024324;28;20420;-68
2022/09/27 07:10:37;;;;;;;5.10;4.60;;;16.40;99.90;;;;;;5023427;28;20464;-68
2022/09/27 07:13:04;;;;;;;8.37;6.93;;;16.50;99.90;;;;;;5025388;28;20953;-73
2022/09/27 07:15:31;;;;;;;6.07;5.67;;;16.50;99.90;;;;;;5024615;28;20982;-69
2022/09/27 07:17:58;;;;;;;5.57;4.93;;;16.60;99.90;;;;;;5026542;28;20428;-68
2022/09/27 07:20:25;;;;;;;9.83;6.83;;;16.70;99.90;;;;;;5026583;28;20512;-69
2022/09/27 07:22:51;;;;;;;6.80;6.40;;;16.70;99.90;;;;;;5026459;28;20939;-68
2022/09/27 07:25:18;;;;;;;6.33;5.97;;;16.70;99.90;;;;;;5023122;28;20408;-68
2022/09/27 07:27:43;;;;;;;286.20;193.50;;;16.60;99.20;;;;;;5025659;28;20927;-68
2022/09/27 07:30:10;;;;;;;122.80;96.30;;;16.50;99.80;;;;;;5023940;28;20481;-69
2022/09/27 07:32:36;;;;;;;45.00;36.10;;;16.50;99.70;;;;;;5023965;28;20763;-68
2022/09/27 07:35:04;;;;;;;12.80;11.37;;;16.50;99.50;;;;;;5025715;28;20424;-68
2022/09/27 07:37:35;;;;;;;8.50;6.13;;;16.40;99.70;;;;;;5026253;28;20424;-69
2022/09/27 07:40:01;;;;;;;4.03;3.60;;;16.40;99.00;;;;;;5025437;28;20520;-64
2022/09/27 07:42:27;;;;;;;3.80;3.30;;;16.40;99.90;;;;;;5025212;28;20914;-64
2022/09/27 07:44:56;;;;;;;2.83;2.63;;;16.30;98.40;;;;;;5023968;28;20422;-64
2022/09/27 07:47:23;;;;;;;4.10;3.80;;;16.00;98.20;;;;;;5024387;28;20426;-64
2022/09/27 07:49:51;;;;;;;4.03;3.83;;;15.70;99.10;;;;;;5023457;28;20804;-64
2022/09/27 07:52:18;;;;;;;3.90;3.60;;;15.50;99.10;;;;;;5022376;28;20411;-64
2022/09/27 07:54:45;;;;;;;3.87;3.57;;;15.20;99.10;;;;;;5025530;28;20774;-65
2022/09/27 07:57:11;;;;;;;4.03;3.57;;;14.90;99.90;;;;;;5025362;28;20457;-65
2022/09/27 07:59:36;;;;;;;4.43;4.23;;;14.70;99.90;;;;;;5022048;28;20406;-64
2022/09/27 08:02:02;;;;;;;4.70;4.40;;;14.50;99.90;;;;;;5022772;28;20469;-64
2022/09/27 08:04:28;;;;;;;4.23;4.03;;;14.30;99.90;;;;;;5005897;28;20947;-64
2022/09/27 08:06:54;;;;;;;6.07;5.70;;;14.20;99.90;;;;;;5025537;28;20444;-64
2022/09/27 08:09:20;;;;;;;2.90;2.70;;;14.10;99.90;;;;;;4974702;28;20228;-65
2022/09/27 08:11:45;;;;;;;5.60;5.30;;;14.00;99.90;;;;;;5025062;28;20407;-64
2022/09/27 08:14:13;;;;;;;3.87;3.67;;;13.90;99.90;;;;;;5024283;28;20340;-65
2022/09/27 08:16:40;;;;;;;3.07;2.87;;;13.80;99.90;;;;;;5021975;28;20270;-64
2022/09/27 08:19:06;;;;;;;3.00;2.90;;;13.70;99.90;;;;;;5024214;28;20809;-68
2022/09/27 08:21:32;;;;;;;4.30;2.77;;;13.60;99.90;;;;;;5021893;28;20507;-64
2022/09/27 08:23:58;;;;;;;4.60;2.97;;;13.50;99.90;;;;;;5024535;28;20512;-64
2022/09/27 08:26:26;;;;;;;3.07;2.87;;;13.50;99.90;;;;;;5023738;28;20627;-64
2022/09/27 08:28:52;;;;;;;3.03;2.93;;;13.50;99.90;;;;;;5023382;28;20898;-64
2022/09/27 08:31:18;;;;;;;2.30;2.20;;;13.50;99.90;;;;;;5023454;28;20457;-64
2022/09/27 08:33:49;;;;;;;2.70;2.60;;;13.40;99.90;;;;;;5024742;28;20181;-64
2022/09/27 08:36:14;;;;;;;2.70;2.60;;;13.40;99.90;;;;;;5015340;28;20775;-64
2022/09/27 08:38:40;;;;;;;2.77;2.67;;;13.20;99.90;;;;;;5014213;28;20431;-64
2022/09/27 08:41:06;;;;;;;3.83;3.63;;;13.30;99.90;;;;;;5014102;28;20193;-64
2022/09/27 08:43:50;;;;;;;4.00;2.90;;;13.30;99.90;;;;;;5014070;28;20195;-64
2022/09/27 08:46:22;;;;;;;2.90;2.83;;;13.30;99.90;;;;;;5023785;28;21000;-64
2022/09/27 08:48:53;;;;;;;3.43;3.23;;;13.20;99.90;;;;;;5033948;28;20408;-64
2022/09/27 08:51:29;;;;;;;2.30;2.20;;;13.10;99.90;;;;;;5031940;28;20470;-64
2022/09/27 08:54:17;;;;;;;5.00;4.80;;;13.10;99.90;;;;;;5031366;28;20434;-64
2022/09/27 08:56:44;;;;;;;2.23;2.13;;;13.00;99.90;;;;;;5033344;28;20453;-64
2022/09/27 08:59:15;;;;;;;2.60;2.50;;;13.00;99.90;;;;;;5032543;28;20416;-64
2022/09/27 09:01:41;;;;;;;2.40;2.30;;;13.00;99.90;;;;;;5033665;28;20493;-64
2022/09/27 09:04:09;;;;;;;4.10;2.23;;;13.00;99.90;;;;;;5033331;28;20416;-64
2022/09/27 09:07:01;;;;;;;3.40;3.30;;;13.00;99.90;;;;;;5033336;28;20458;-66
2022/09/27 09:09:48;;;;;;;6.10;5.50;;;13.00;99.90;;;;;;4936678;29;20476;-68
2022/09/27 09:12:46;;;;;;;7.70;4.10;;;13.70;99.90;;;;;;4895612;29;20801;-68
2022/09/27 09:15:21;;;;;;;4.00;3.70;;;13.80;99.90;;;;;;4933457;29;20435;-68
2022/09/27 09:18:01;;;;;;;2.90;2.70;;;14.90;99.90;;;;;;4933848;29;20758;-66
2022/09/27 09:20:33;;;;;;;4.33;3.70;;;15.20;99.90;;;;;;4933166;28;20457;-66
2022/09/27 09:23:29;;;;;;;3.70;3.40;;;15.20;99.90;;;;;;4951143;28;20805;-66
2022/09/27 09:26:07;;;;;;;3.30;3.00;;;15.30;99.90;;;;;;4952772;29;20532;-66
2022/09/27 09:29:11;;;;;;;3.20;3.00;;;15.60;99.90;;;;;;4952050;29;20425;-66
2022/09/27 09:31:54;;;;;;;3.53;2.80;;;15.90;99.90;;;;;;4948954;29;20443;-66
2022/09/27 09:34:28;;;;;;;8.50;5.40;;;16.20;99.90;;;;;;4952029;29;20433;-65
2022/09/27 09:37:25;;;;;;;3.10;3.00;;;16.40;99.70;;;;;;4952649;29;20430;-66
2022/09/27 09:40:04;;;;;;;2.40;2.10;;;16.40;98.10;;;;;;4968070;28;20459;-66
2022/09/27 09:42:39;;;;;;;1.80;1.70;;;16.00;99.00;;;;;;5032336;28;20803;-66
2022/09/27 09:45:16;;;;;;;2.23;2.07;;;16.00;99.90;;;;;;5032670;28;20401;-65
2022/09/27 09:48:20;;;;;;;2.20;2.07;;;16.10;99.60;;;;;;5032771;28;20767;-65
2022/09/27 09:50:55;;;;;;;3.30;3.10;;;16.30;99.30;;;;;;5031940;28;20481;-65
2022/09/27 09:53:33;;;;;;;2.47;2.37;;;16.30;99.20;;;;;;5012913;28;20577;-66
2022/09/27 09:56:15;;;;;;;2.60;2.40;;;16.30;98.40;;;;;;5031676;28;20455;-66
2022/09/27 09:58:50;;;;;;;3.00;2.90;;;16.40;98.50;;;;;;5032567;28;20749;-65
2022/09/27 10:01:22;;;;;;;3.37;3.20;;;16.40;98.40;;;;;;5032102;28;20415;-66
2022/09/27 10:03:48;;;;;;;4.47;4.37;;;16.60;97.60;;;;;;5032572;28;20765;-66
2022/09/27 10:06:15;;;;;;;4.13;4.03;;;16.40;97.30;;;;;;5031371;28;20975;-66
2022/09/27 10:08:42;;;;;;;3.40;3.20;;;15.70;99.30;;;;;;5031236;28;20509;-65
2022/09/27 10:11:30;;;;;;;4.37;3.27;;;15.40;99.90;;;;;;5033145;28;20463;-65
2022/09/27 10:13:56;;;;;;;3.43;3.23;;;15.60;99.90;;;;;;5036457;28;20418;-65
2022/09/27 10:16:25;;;;;;;1.97;1.80;;;15.60;99.90;;;;;;5035411;28;20418;-63
2022/09/27 10:18:56;;;;;;;147.20;87.43;;;15.80;99.90;;;;;;5018977;28;20187;-62
2022/09/27 10:21:27;;;;;;;11.13;9.23;;;15.60;99.00;;;;;;5036145;28;20410;-64
2022/09/27 10:24:07;;;;;;;2.17;2.07;;;15.40;99.40;;;;;;5034911;28;20433;-64
2022/09/27 10:26:35;;;;;;;2.43;2.23;;;15.20;99.90;;;;;;4974150;28;20420;-64
2022/09/27 10:29:19;;;;;;;2.90;2.80;;;15.00;99.90;;;;;;4975231;28;20447;-64
2022/09/27 10:31:47;;;;;;;2.10;2.00;;;14.80;99.90;;;;;;4974844;28;20485;-64
2022/09/27 10:34:34;;;;;;;2.20;2.10;;;14.70;99.90;;;;;;4942526;28;20779;-64
2022/09/27 10:37:08;;;;;;;2.10;2.00;;;14.60;99.90;;;;;;4975130;28;20439;-63
2022/09/27 10:39:35;;;;;;;3.20;3.10;;;14.50;99.90;;;;;;4974529;28;20891;-63
2022/09/27 10:42:01;;;;;;;2.20;2.10;;;14.30;99.90;;;;;;4954076;28;20428;-65
2022/09/27 10:44:31;;;;;;;2.00;1.90;;;14.30;99.90;;;;;;4940816;29;20834;-63
2022/09/27 10:47:06;;;;;;;2.80;2.70;;;14.30;99.90;;;;;;4941358;29;20262;-63
2022/09/27 10:49:37;;;;;;;2.73;2.63;;;14.10;99.90;;;;;;4945780;29;20467;-65
2022/09/27 10:52:07;;;;;;;4.03;3.73;;;14.30;99.90;;;;;;4948892;29;20431;-68
2022/09/27 10:54:36;;;;;;;5.20;4.20;;;14.80;99.90;;;;;;4953484;28;20839;-65
2022/09/27 10:57:18;;;;;;;2.60;2.50;;;15.30;99.90;;;;;;4963423;28;20792;-65
2022/09/27 10:59:50;;;;;;;4.77;4.33;;;15.60;99.90;;;;;;5002612;28;20485;-65
2022/09/27 11:02:36;;;;;;;4.80;2.90;;;15.70;99.90;;;;;;5004234;28;20486;-66
2022/09/27 11:05:28;;;;;;;2.10;2.00;;;15.80;99.90;;;;;;5009272;28;20475;-65
2022/09/27 11:07:58;;;;;;;6.17;3.50;;;15.90;99.90;;;;;;4999645;28;20444;-65
2022/09/27 11:10:33;;;;;;;10.10;8.70;;;16.00;99.90;;;;;;5006002;28;20466;-65
2022/09/27 11:13:11;;;;;;;3.00;2.80;;;16.10;99.50;;;;;;5004263;28;20425;-65
2022/09/27 11:16:14;;;;;;;7.40;6.70;;;16.20;98.80;;;;;;5003944;28;20425;-65
2022/09/27 11:18:46;;;;;;;4.70;4.30;;;16.10;99.40;;;;;;4998085;28;20468;-65
2022/09/27 11:21:21;;;;;;;3.73;3.50;;;16.30;98.70;;;;;;4928039;29;20421;-65
2022/09/27 11:24:19;;;;;;;3.50;3.23;;;16.50;97.90;;;;;;4928471;29;20439;-65
2022/09/27 11:27:09;;;;;;;3.40;2.90;;;16.70;97.40;;;;;;4931512;29;20440;-65
2022/09/27 11:30:03;;;;;;;5.87;5.40;;;16.80;96.70;;;;;;4925015;29;20466;-65
2022/09/27 11:33:04;;;;;;;3.83;3.53;;;16.90;96.80;;;;;;4926898;29;20418;-65
2022/09/27 11:35:45;;;;;;;4.23;3.93;;;16.80;95.80;;;;;;4901353;29;20452;-65
2022/09/27 11:38:30;;;;;;;11.33;7.80;;;16.80;96.60;;;;;;4928143;29;20606;-65
2022/09/27 11:41:05;;;;;;;7.37;5.30;;;17.00;97.00;;;;;;4901819;29;20894;-65
2022/09/27 11:43:34;;;;;;;7.50;5.57;;;17.00;96.60;;;;;;4923427;29;20414;-65
2022/09/27 11:46:20;;;;;;;2.60;2.50;;;17.00;97.00;;;;;;4925942;29;20514;-65
2022/09/27 11:49:06;;;;;;;3.30;2.97;;;17.00;94.90;;;;;;4929052;29;20424;-65
2022/09/27 11:51:50;;;;;;;7.37;4.40;;;17.00;95.70;;;;;;4944451;28;20484;-65
2022/09/27 11:54:37;;;;;;;5.70;4.43;;;16.80;96.40;;;;;;5005810;28;20530;-65
2022/09/27 11:57:12;;;;;;;4.00;3.80;;;16.90;96.80;;;;;;4989923;28;20529;-65
2022/09/27 11:59:44;;;;;;;160.43;99.30;;;16.80;95.10;;;;;;5004761;28;20399;-65
2022/09/27 12:02:45;;;;;;;28.83;23.73;;;16.60;95.90;;;;;;5003002;28;20773;-65
2022/09/27 12:05:35;;;;;;;3.43;3.13;;;16.40;97.40;;;;;;5009437;28;20466;-65
2022/09/27 12:08:31;;;;;;;11.33;8.47;;;16.60;95.80;;;;;;5024918;28;20422;-65
2022/09/27 12:11:12;;;;;;;13.10;9.60;;;16.50;97.30;;;;;;5024279;28;20449;-65
2022/09/27 12:13:51;;;;;;;4.53;4.20;;;16.50;96.90;;;;;;5022576;28;20417;-65
2022/09/27 12:16:19;;;;;;;10.03;9.03;;;16.70;96.50;;;;;;5025143;28;20469;-65
2022/09/27 12:18:46;;;;;;;7.93;4.87;;;16.60;97.00;;;;;;5025042;28;20736;-65
2022/09/27 12:21:12;;;;;;;3.90;3.60;;;16.80;96.40;;;;;;5023417;28;20772;-65
2022/09/27 12:23:40;;;;;;;4.43;4.07;;;16.80;95.80;;;;;;4932792;29;20441;-65
2022/09/27 12:26:24;;;;;;;5.30;4.80;;;16.90;96.10;;;;;;4933400;29;20436;-65
2022/09/27 12:29:14;;;;;;;4.60;4.20;;;16.90;95.60;;;;;;4931735;29;20417;-65
2022/09/27 12:31:55;;;;;;;3.57;3.47;;;16.90;95.70;;;;;;4929663;29;20473;-65
2022/09/27 12:34:24;;;;;;;3.40;3.20;;;17.00;95.40;;;;;;4931820;29;20599;-65
2022/09/27 12:37:24;;;;;;;7.30;7.00;;;16.70;94.50;;;;;;4933947;29;20523;-65
2022/09/27 12:39:59;;;;;;;3.43;3.23;;;16.50;95.50;;;;;;4931413;29;20443;-65
2022/09/27 12:42:32;;;;;;;4.87;4.57;;;16.50;96.20;;;;;;4933329;29;20428;-65
2022/09/27 12:44:58;;;;;;;7.40;6.70;;;16.30;96.90;;;;;;4934068;29;20527;-65
2022/09/27 12:47:47;;;;;;;2.77;2.57;;;16.80;95.80;;;;;;4933566;29;20852;-65
2022/09/27 12:50:31;;;;;;;5.27;5.00;;;17.00;95.80;;;;;;4931706;29;20563;-65
2022/09/27 12:53:07;;;;;;;97.43;57.10;;;16.90;93.90;;;;;;4932210;29;20418;-65
2022/09/27 12:56:11;;;;;;;24.80;19.17;;;16.70;95.30;;;;;;5011444;28;20440;-65
2022/09/27 12:58:36;;;;;;;6.43;5.33;;;16.50;96.30;;;;;;5019902;28;20919;-65
2022/09/27 13:01:30;;;;;;;3.47;3.37;;;16.20;95.80;;;;;;5022200;28;20423;-65
2022/09/27 13:04:39;;;;;;;6.70;5.13;;;16.10;97.10;;;;;;5023152;28;20181;-65
2022/09/27 13:07:16;;;;;;;9.23;8.10;;;15.90;97.40;;;;;;4986834;28;20440;-65
2022/09/27 13:10:19;;;;;;;5.80;4.97;;;16.20;97.20;;;;;;5003489;28;20460;-65
2022/09/27 13:12:50;;;;;;;4.60;4.30;;;16.20;96.80;;;;;;5001137;28;20414;-66
2022/09/27 13:15:35;;;;;;;5.67;5.47;;;16.30;96.90;;;;;;5004397;28;20413;-65
2022/09/27 13:18:04;;;;;;;7.03;4.90;;;16.30;96.80;;;;;;5001711;28;20531;-65